Time;durP1;ratioP1;P1;durP2;ratioP2;P2;SDS_P1;SDS_P2;PMS_P1;PMS_P2;Temp;Humidity;BMP_temperature;BMP_pressure;BME280_temperature;BME280_humidity;BME280_pressure;Samples;Min_cycle;Max_cycle;Signal;HPM_P1;HPM_P2
2021/11/05 00:00:11;;;;;;;42.45;24.90;;;;;;;;;;5094545;28;20247;-71
2021/11/05 00:02:38;;;;;;;50.40;25.60;;;;;;;;;;5094007;28;20284;-72
2021/11/05 00:05:06;;;;;;;39.22;24.35;;;;;;;;;;5094315;28;20295;-72
2021/11/05 00:07:33;;;;;;;47.42;25.45;;;;;;;;;;5094264;28;20307;-72
2021/11/05 00:10:00;;;;;;;34.90;19.77;;;;;;;;;;5094203;28;20195;-73
2021/11/05 00:12:27;;;;;;;40.28;26.10;;;;;;;;;;5094173;28;20205;-71
2021/11/05 00:14:56;;;;;;;43.88;24.33;;;;;;;;;;5094120;28;20256;-72
2021/11/05 00:17:23;;;;;;;44.88;24.92;;;;;;;;;;5093701;28;20197;-71
2021/11/05 00:19:50;;;;;;;39.60;21.95;;;;;;;;;;5094156;28;20307;-71
2021/11/05 00:22:17;;;;;;;41.95;23.75;;;;;;;;;;5092784;28;20197;-72
2021/11/05 00:24:45;;;;;;;41.97;24.67;;;;;;;;;;5094659;28;20205;-71
2021/11/05 00:27:12;;;;;;;45.85;25.27;;;;;;;;;;5093862;28;20212;-72
2021/11/05 00:29:41;;;;;;;43.20;23.35;;;;;;;;;;5093770;28;20207;-72
2021/11/05 00:32:10;;;;;;;46.78;22.77;;;;;;;;;;5093892;28;20198;-72
2021/11/05 00:34:37;;;;;;;41.78;24.08;;;;;;;;;;5093480;28;20671;-71
2021/11/05 00:37:05;;;;;;;50.40;25.67;;;;;;;;;;5093712;28;20290;-72
2021/11/05 00:39:32;;;;;;;42.63;24.40;;;;;;;;;;5093696;28;20531;-72
2021/11/05 00:41:59;;;;;;;40.97;24.30;;;;;;;;;;5093700;28;20201;-71
2021/11/05 00:44:27;;;;;;;45.63;24.23;;;;;;;;;;5093439;28;20687;-72
2021/11/05 00:46:54;;;;;;;43.92;22.73;;;;;;;;;;5093395;28;20485;-72
2021/11/05 00:49:23;;;;;;;42.25;24.13;;;;;;;;;;5093086;28;20665;-71
2021/11/05 00:51:50;;;;;;;41.45;24.02;;;;;;;;;;5093716;28;20200;-72
2021/11/05 00:54:17;;;;;;;48.08;25.20;;;;;;;;;;5093795;28;20227;-72
2021/11/05 00:56:44;;;;;;;40.78;22.08;;;;;;;;;;5093489;28;20287;-72
2021/11/05 00:59:12;;;;;;;41.97;24.25;;;;;;;;;;5093181;28;20192;-72
2021/11/05 01:01:39;;;;;;;43.17;25.10;;;;;;;;;;5093312;28;20304;-72
2021/11/05 01:04:06;;;;;;;43.10;23.65;;;;;;;;;;5093084;28;20191;-72
2021/11/05 01:06:35;;;;;;;46.13;24.42;;;;;;;;;;5093249;28;20229;-72
2021/11/05 01:09:02;;;;;;;40.20;23.80;;;;;;;;;;5093266;28;20204;-73
2021/11/05 01:11:29;;;;;;;36.78;22.38;;;;;;;;;;5093307;28;20196;-72
2021/11/05 01:13:56;;;;;;;41.58;23.42;;;;;;;;;;5092831;28;20202;-72
2021/11/05 01:16:24;;;;;;;40.22;22.45;;;;;;;;;;5092998;28;20199;-73
2021/11/05 01:18:51;;;;;;;40.78;22.77;;;;;;;;;;5093284;28;20193;-73
2021/11/05 01:21:18;;;;;;;39.55;22.67;;;;;;;;;;5092965;28;20199;-72
2021/11/05 01:23:47;;;;;;;38.28;22.40;;;;;;;;;;5093526;28;20534;-72
2021/11/05 01:26:14;;;;;;;39.25;23.15;;;;;;;;;;5092904;28;20234;-72
2021/11/05 01:28:41;;;;;;;37.85;20.25;;;;;;;;;;5092879;28;20193;-72
2021/11/05 01:31:09;;;;;;;43.92;24.20;;;;;;;;;;5093149;28;20196;-72
2021/11/05 01:33:36;;;;;;;40.17;22.88;;;;;;;;;;5094450;28;20286;-72
2021/11/05 01:36:03;;;;;;;42.17;23.88;;;;;;;;;;5097511;28;20541;-72
2021/11/05 01:38:31;;;;;;;39.53;21.98;;;;;;;;;;5097329;28;20203;-72
2021/11/05 01:40:59;;;;;;;41.92;21.75;;;;;;;;;;5096842;28;20196;-72
2021/11/05 01:43:26;;;;;;;40.35;21.88;;;;;;;;;;5097134;28;20397;-72
2021/11/05 01:45:54;;;;;;;46.55;22.90;;;;;;;;;;5097280;28;20556;-72
2021/11/05 01:48:21;;;;;;;42.70;22.50;;;;;;;;;;5096969;28;20246;-73
2021/11/05 01:50:48;;;;;;;39.25;21.00;;;;;;;;;;5096876;28;20602;-74
2021/11/05 01:53:15;;;;;;;43.15;21.25;;;;;;;;;;5097367;28;20234;-73
2021/11/05 01:55:44;;;;;;;42.78;22.77;;;;;;;;;;5096400;28;20195;-73
2021/11/05 01:58:12;;;;;;;38.38;20.88;;;;;;;;;;5096525;28;20316;-71
2021/11/05 02:00:40;;;;;;;39.63;21.20;;;;;;;;;;5096814;28;20196;-72
2021/11/05 02:03:07;;;;;;;38.95;21.25;;;;;;;;;;5096113;28;20191;-73
2021/11/05 02:05:35;;;;;;;40.35;23.08;;;;;;;;;;5096302;28;20670;-72
2021/11/05 02:08:03;;;;;;;50.97;23.50;;;;;;;;;;5096119;28;20221;-71
2021/11/05 02:10:31;;;;;;;40.70;22.30;;;;;;;;;;5096535;28;20196;-71
2021/11/05 02:12:58;;;;;;;40.72;19.85;;;;;;;;;;5096175;28;20652;-71
2021/11/05 02:15:27;;;;;;;35.95;21.35;;;;;;;;;;5096595;28;20287;-71
2021/11/05 02:17:54;;;;;;;38.10;20.90;;;;;;;;;;5097300;28;20202;-71
2021/11/05 02:20:23;;;;;;;45.53;20.92;;;;;;;;;;5096230;28;20654;-71
2021/11/05 02:22:53;;;;;;;41.17;20.83;;;;;;;;;;5096599;28;20196;-71
2021/11/05 02:25:20;;;;;;;36.13;18.60;;;;;;;;;;5096414;28;20203;-71
2021/11/05 02:27:49;;;;;;;34.25;19.17;;;;;;;;;;5096393;28;20706;-71
2021/11/05 02:30:17;;;;;;;29.70;15.27;;;;;;;;;;5096564;28;20298;-71
2021/11/05 02:32:44;;;;;;;32.15;18.05;;;;;;;;;;5096216;28;20199;-71
2021/11/05 02:35:12;;;;;;;30.70;18.30;;;;;;;;;;5096121;28;20203;-71
2021/11/05 02:37:39;;;;;;;36.25;19.73;;;;;;;;;;5096750;28;20206;-71
2021/11/05 02:40:09;;;;;;;39.78;20.67;;;;;;;;;;5096145;28;20194;-72
2021/11/05 02:42:36;;;;;;;37.17;19.23;;;;;;;;;;5096038;28;20201;-72
2021/11/05 02:45:04;;;;;;;37.65;20.80;;;;;;;;;;5094639;28;20201;-71
2021/11/05 02:47:31;;;;;;;35.80;19.92;;;;;;;;;;5095942;28;20298;-71
2021/11/05 02:50:00;;;;;;;38.33;18.17;;;;;;;;;;5096202;28;20207;-72
2021/11/05 02:52:27;;;;;;;33.65;17.75;;;;;;;;;;5095598;28;20327;-72
2021/11/05 02:54:55;;;;;;;32.13;17.02;;;;;;;;;;5095926;28;20191;-72
2021/11/05 02:57:23;;;;;;;30.50;17.05;;;;;;;;;;5095769;28;20203;-72
2021/11/05 02:59:50;;;;;;;37.53;20.60;;;;;;;;;;5095437;28;20195;-72
2021/11/05 03:02:21;;;;;;;41.83;20.23;;;;;;;;;;5096184;28;20196;-72
2021/11/05 03:04:49;;;;;;;36.90;18.35;;;;;;;;;;5095328;28;20203;-72
2021/11/05 03:07:16;;;;;;;39.40;20.05;;;;;;;;;;5095235;28;20222;-73
2021/11/05 03:09:43;;;;;;;37.60;18.88;;;;;;;;;;5095157;28;20650;-72
2021/11/05 03:12:11;;;;;;;35.70;19.67;;;;;;;;;;5095531;28;20200;-72
2021/11/05 03:14:41;;;;;;;37.10;19.60;;;;;;;;;;5095574;28;20646;-72
2021/11/05 03:17:08;;;;;;;36.53;18.60;;;;;;;;;;5095411;28;20192;-72
2021/11/05 03:19:35;;;;;;;34.47;18.50;;;;;;;;;;5095076;28;20195;-74
2021/11/05 03:22:04;;;;;;;30.33;20.77;;;;;;;;;;5095546;28;20205;-73
2021/11/05 03:24:32;;;;;;;33.25;18.35;;;;;;;;;;5095330;28;20196;-72
2021/11/05 03:26:59;;;;;;;33.00;17.20;;;;;;;;;;5095550;28;20207;-72
2021/11/05 03:29:26;;;;;;;37.90;18.88;;;;;;;;;;5094820;28;20201;-72
2021/11/05 03:31:55;;;;;;;34.50;17.73;;;;;;;;;;5094866;28;20196;-72
2021/11/05 03:34:22;;;;;;;27.23;17.00;;;;;;;;;;5095054;28;20195;-72
2021/11/05 03:36:49;;;;;;;36.53;18.50;;;;;;;;;;5095731;28;20214;-72
2021/11/05 03:39:16;;;;;;;39.92;22.58;;;;;;;;;;5095350;28;20564;-71
2021/11/05 03:41:44;;;;;;;30.45;19.13;;;;;;;;;;5094627;28;20249;-72
2021/11/05 03:44:11;;;;;;;36.80;17.30;;;;;;;;;;5094576;28;20645;-73
2021/11/05 03:46:38;;;;;;;34.72;18.95;;;;;;;;;;5094495;28;20285;-73
2021/11/05 03:49:07;;;;;;;32.03;18.90;;;;;;;;;;5094610;28;20720;-73
2021/11/05 03:51:35;;;;;;;33.25;16.88;;;;;;;;;;5094637;28;20238;-72
2021/11/05 03:54:02;;;;;;;39.35;20.88;;;;;;;;;;5095397;28;20311;-72
2021/11/05 03:56:30;;;;;;;34.58;16.70;;;;;;;;;;5094482;28;20200;-73
2021/11/05 03:58:57;;;;;;;32.50;15.95;;;;;;;;;;5094278;28;20296;-72
2021/11/05 04:01:24;;;;;;;36.25;19.80;;;;;;;;;;5094549;28;20193;-72
2021/11/05 04:03:53;;;;;;;36.45;19.45;;;;;;;;;;5094702;28;20657;-72
2021/11/05 04:06:22;;;;;;;33.67;18.55;;;;;;;;;;5095058;28;20197;-72
2021/11/05 04:08:50;;;;;;;32.50;16.77;;;;;;;;;;5094393;28;20226;-72
2021/11/05 04:11:17;;;;;;;33.75;17.92;;;;;;;;;;5094743;28;20211;-72
2021/11/05 04:13:44;;;;;;;33.85;17.08;;;;;;;;;;5095117;28;20219;-71
2021/11/05 04:16:12;;;;;;;39.00;17.80;;;;;;;;;;5094680;28;20196;-73
2021/11/05 04:18:39;;;;;;;31.63;17.48;;;;;;;;;;5095059;28;20204;-72
2021/11/05 04:21:06;;;;;;;35.00;17.63;;;;;;;;;;5094332;28;20206;-72
2021/11/05 04:23:35;;;;;;;38.33;16.05;;;;;;;;;;5094257;28;20712;-72
2021/11/05 04:26:03;;;;;;;32.83;16.50;;;;;;;;;;5094477;28;20199;-72
2021/11/05 04:28:30;;;;;;;35.30;17.77;;;;;;;;;;5094588;28;20247;-72
2021/11/05 04:30:57;;;;;;;33.95;16.73;;;;;;;;;;5094395;28;20202;-72
2021/11/05 04:33:25;;;;;;;37.90;18.70;;;;;;;;;;5094378;28;20196;-72
2021/11/05 04:35:52;;;;;;;32.85;18.38;;;;;;;;;;5093978;28;20656;-72
2021/11/05 04:38:19;;;;;;;34.60;17.88;;;;;;;;;;5093969;28;20699;-72
2021/11/05 04:40:48;;;;;;;37.28;16.95;;;;;;;;;;5094207;28;20196;-72
2021/11/05 04:43:15;;;;;;;36.88;17.05;;;;;;;;;;5093865;28;20656;-72
2021/11/05 04:45:44;;;;;;;36.97;17.98;;;;;;;;;;5094149;28;20298;-72
2021/11/05 04:48:11;;;;;;;38.67;16.88;;;;;;;;;;5093994;28;20222;-72
2021/11/05 04:50:39;;;;;;;36.20;17.58;;;;;;;;;;5093994;28;20646;-73
2021/11/05 04:53:06;;;;;;;32.35;17.58;;;;;;;;;;5094067;28;20218;-73
2021/11/05 04:55:34;;;;;;;37.17;16.25;;;;;;;;;;5094621;28;20203;-73
2021/11/05 04:58:03;;;;;;;42.00;18.20;;;;;;;;;;5093668;28;20207;-72
2021/11/05 05:00:30;;;;;;;28.10;14.07;;;;;;;;;;5093944;28;20196;-72
2021/11/05 05:02:57;;;;;;;34.22;17.30;;;;;;;;;;5093963;28;20286;-71
2021/11/05 05:05:25;;;;;;;33.78;18.20;;;;;;;;;;5093439;28;20195;-72
2021/11/05 05:07:52;;;;;;;35.70;18.35;;;;;;;;;;5093218;28;20226;-72
2021/11/05 05:10:19;;;;;;;32.22;18.83;;;;;;;;;;5094247;28;20290;-73
2021/11/05 05:12:47;;;;;;;34.70;17.90;;;;;;;;;;5094085;28;20196;-72
2021/11/05 05:15:16;;;;;;;30.00;16.88;;;;;;;;;;5093756;28;20192;-71
2021/11/05 05:17:44;;;;;;;34.42;16.75;;;;;;;;;;5093419;28;20196;-71
2021/11/05 05:20:12;;;;;;;30.92;17.08;;;;;;;;;;5093382;28;20202;-70
2021/11/05 05:22:40;;;;;;;32.67;15.48;;;;;;;;;;5094086;28;20634;-70
2021/11/05 05:25:09;;;;;;;29.05;15.18;;;;;;;;;;5093346;28;20200;-70
2021/11/05 05:27:36;;;;;;;30.08;16.88;;;;;;;;;;5092211;28;20213;-72
2021/11/05 05:30:04;;;;;;;32.40;15.93;;;;;;;;;;5092557;28;20284;-72
2021/11/05 05:32:33;;;;;;;34.35;15.20;;;;;;;;;;5093221;28;20204;-72
2021/11/05 05:35:00;;;;;;;27.00;15.93;;;;;;;;;;5093566;28;20282;-72
2021/11/05 05:37:27;;;;;;;31.05;15.35;;;;;;;;;;5093537;28;20231;-72
2021/11/05 05:39:54;;;;;;;25.83;15.02;;;;;;;;;;5093566;28;20553;-72
2021/11/05 05:42:22;;;;;;;26.92;14.52;;;;;;;;;;5093633;28;20193;-71
2021/11/05 05:44:49;;;;;;;24.73;14.57;;;;;;;;;;5093099;28;20290;-71
2021/11/05 05:47:17;;;;;;;25.63;15.23;;;;;;;;;;5093061;28;20227;-71
2021/11/05 05:49:48;;;;;;;27.00;15.30;;;;;;;;;;5092619;28;20221;-71
2021/11/05 05:52:15;;;;;;;37.67;18.65;;;;;;;;;;5092983;28;20202;-71
2021/11/05 05:54:42;;;;;;;31.55;16.83;;;;;;;;;;5092626;28;20638;-72
2021/11/05 05:57:10;;;;;;;33.70;15.00;;;;;;;;;;5093410;28;20200;-72
2021/11/05 05:59:37;;;;;;;26.80;13.25;;;;;;;;;;5093085;28;20218;-72
2021/11/05 06:02:04;;;;;;;28.33;15.52;;;;;;;;;;5092841;28;20202;-72
2021/11/05 06:04:32;;;;;;;28.33;15.45;;;;;;;;;;5093226;28;20206;-74
2021/11/05 06:07:01;;;;;;;30.15;16.88;;;;;;;;;;5093848;28;20196;-74
2021/11/05 06:09:28;;;;;;;30.02;14.57;;;;;;;;;;5093564;28;20223;-73
2021/11/05 06:11:55;;;;;;;48.65;16.08;;;;;;;;;;5093504;28;20652;-73
2021/11/05 06:14:22;;;;;;;30.50;16.48;;;;;;;;;;5093569;28;20283;-74
2021/11/05 06:16:49;;;;;;;28.23;14.57;;;;;;;;;;5093498;28;20211;-73
2021/11/05 06:19:17;;;;;;;33.67;16.15;;;;;;;;;;5093252;28;20206;-73
2021/11/05 06:21:44;;;;;;;29.77;15.43;;;;;;;;;;5095549;28;20311;-72
2021/11/05 06:24:12;;;;;;;27.65;15.20;;;;;;;;;;5095667;28;20206;-74
2021/11/05 06:26:40;;;;;;;25.83;14.05;;;;;;;;;;5096084;28;20550;-73
2021/11/05 06:29:07;;;;;;;30.65;15.32;;;;;;;;;;5096128;28;20222;-73
2021/11/05 06:31:34;;;;;;;25.58;13.90;;;;;;;;;;5096549;28;20287;-68
2021/11/05 06:34:02;;;;;;;23.05;13.68;;;;;;;;;;5096506;28;20290;-75
2021/11/05 06:36:30;;;;;;;28.55;13.98;;;;;;;;;;5097390;28;20602;-74
2021/11/05 06:38:57;;;;;;;30.80;14.25;;;;;;;;;;5096432;28;20206;-73
2021/11/05 06:41:26;;;;;;;20.73;12.98;;;;;;;;;;5097081;28;20203;-73
2021/11/05 06:43:53;;;;;;;24.25;13.75;;;;;;;;;;5096086;28;20196;-73
2021/11/05 06:46:21;;;;;;;25.75;13.05;;;;;;;;;;5096389;28;20303;-74
2021/11/05 06:48:48;;;;;;;26.70;13.30;;;;;;;;;;5096711;28;20234;-73
2021/11/05 06:51:15;;;;;;;27.98;15.82;;;;;;;;;;5095885;28;20203;-73
2021/11/05 06:53:43;;;;;;;33.13;14.75;;;;;;;;;;5095792;28;20226;-74
2021/11/05 06:56:10;;;;;;;33.70;15.60;;;;;;;;;;5096248;28;20195;-74
2021/11/05 06:58:38;;;;;;;31.48;15.85;;;;;;;;;;5096623;28;20199;-74
2021/11/05 07:01:06;;;;;;;30.30;15.82;;;;;;;;;;5095790;28;20196;-74
2021/11/05 07:03:33;;;;;;;27.20;15.70;;;;;;;;;;5095765;28;20191;-73
2021/11/05 07:06:00;;;;;;;34.00;16.77;;;;;;;;;;5096508;28;20200;-74
2021/11/05 07:08:28;;;;;;;33.08;15.70;;;;;;;;;;5095816;28;22172;-73
2021/11/05 07:10:56;;;;;;;46.92;16.73;;;;;;;;;;5095912;28;20227;-74
2021/11/05 07:13:24;;;;;;;29.88;16.10;;;;;;;;;;5095808;28;20210;-75
2021/11/05 07:15:52;;;;;;;25.85;14.60;;;;;;;;;;5095997;28;20632;-74
2021/11/05 07:18:20;;;;;;;23.77;15.93;;;;;;;;;;5095760;28;20199;-74
2021/11/05 07:20:47;;;;;;;26.98;14.35;;;;;;;;;;5095353;28;20241;-74
2021/11/05 07:23:14;;;;;;;30.95;14.50;;;;;;;;;;5096018;28;20283;-74
2021/11/05 07:25:42;;;;;;;22.42;13.20;;;;;;;;;;5095299;28;20205;-74
2021/11/05 07:28:09;;;;;;;29.35;13.68;;;;;;;;;;5095297;28;20203;-74
2021/11/05 07:30:37;;;;;;;25.17;13.63;;;;;;;;;;5095025;28;20219;-74
2021/11/05 07:33:07;;;;;;;20.27;11.98;;;;;;;;;;5095519;28;20192;-75
2021/11/05 07:35:34;;;;;;;27.10;12.68;;;;;;;;;;5095061;28;20208;-75
2021/11/05 07:38:02;;;;;;;26.88;14.90;;;;;;;;;;5095023;28;20240;-75
2021/11/05 07:40:31;;;;;;;27.20;14.02;;;;;;;;;;5095285;28;20552;-74
2021/11/05 07:42:58;;;;;;;30.08;15.38;;;;;;;;;;5094941;28;20208;-73
2021/11/05 07:45:26;;;;;;;32.10;15.32;;;;;;;;;;5095222;28;20198;-74
2021/11/05 07:47:56;;;;;;;30.27;15.07;;;;;;;;;;5094829;28;20204;-74
2021/11/05 07:50:25;;;;;;;30.23;15.50;;;;;;;;;;5095054;28;20221;-74
2021/11/05 07:52:53;;;;;;;33.28;14.68;;;;;;;;;;5094877;28;20320;-74
2021/11/05 07:55:20;;;;;;;26.02;14.65;;;;;;;;;;5095031;28;20291;-74
2021/11/05 07:57:47;;;;;;;26.95;14.60;;;;;;;;;;5095712;28;20196;-74
2021/11/05 08:00:15;;;;;;;22.38;13.40;;;;;;;;;;5094579;28;20714;-74
2021/11/05 08:02:43;;;;;;;28.92;15.13;;;;;;;;;;5094840;28;20279;-74
2021/11/05 08:05:10;;;;;;;23.00;13.98;;;;;;;;;;5094502;28;20203;-74
2021/11/05 08:07:39;;;;;;;31.35;15.40;;;;;;;;;;5094768;28;20253;-74
2021/11/05 08:10:07;;;;;;;30.35;16.08;;;;;;;;;;5094629;28;20304;-74
2021/11/05 08:12:34;;;;;;;25.83;14.45;;;;;;;;;;5094773;28;20192;-74
2021/11/05 08:15:01;;;;;;;23.63;13.70;;;;;;;;;;5094425;28;20194;-75
2021/11/05 08:17:28;;;;;;;29.83;11.75;;;;;;;;;;5094867;28;20287;-75
2021/11/05 08:19:55;;;;;;;21.15;12.90;;;;;;;;;;5094310;28;20200;-74
2021/11/05 08:22:23;;;;;;;20.30;13.73;;;;;;;;;;5094237;28;20263;-74
2021/11/05 08:24:52;;;;;;;19.73;12.07;;;;;;;;;;5095370;28;20308;-74
2021/11/05 08:27:20;;;;;;;18.27;11.05;;;;;;;;;;5094514;28;20207;-74
2021/11/05 08:29:47;;;;;;;22.63;11.27;;;;;;;;;;5094414;28;20758;-73
2021/11/05 08:32:15;;;;;;;22.20;11.93;;;;;;;;;;5094294;28;20205;-73
2021/11/05 08:34:42;;;;;;;24.05;13.02;;;;;;;;;;5094354;28;20624;-74
2021/11/05 08:37:09;;;;;;;27.77;16.20;;;;;;;;;;5094003;28;20195;-73
2021/11/05 08:39:36;;;;;;;23.33;14.00;;;;;;;;;;5093928;28;20214;-73
2021/11/05 08:42:05;;;;;;;19.98;11.35;;;;;;;;;;5094429;28;20223;-73
2021/11/05 08:44:33;;;;;;;26.98;17.08;;;;;;;;;;5094041;28;20196;-74
2021/11/05 08:47:01;;;;;;;29.17;15.50;;;;;;;;;;5094149;28;20670;-73
2021/11/05 08:49:29;;;;;;;24.92;15.45;;;;;;;;;;5094017;28;20306;-74
2021/11/05 08:51:56;;;;;;;23.42;15.23;;;;;;;;;;5094175;28;20197;-74
2021/11/05 08:54:24;;;;;;;30.60;14.68;;;;;;;;;;5094131;28;20245;-74
2021/11/05 08:56:51;;;;;;;27.38;15.05;;;;;;;;;;5094411;28;20196;-74
2021/11/05 08:59:21;;;;;;;23.08;13.93;;;;;;;;;;5094094;28;20292;-75
2021/11/05 09:01:48;;;;;;;27.13;14.30;;;;;;;;;;5093890;28;20196;-74
2021/11/05 09:04:17;;;;;;;30.52;15.25;;;;;;;;;;5093546;28;20263;-74
2021/11/05 09:06:44;;;;;;;28.77;15.95;;;;;;;;;;5093835;28;20283;-74
2021/11/05 09:09:11;;;;;;;27.42;14.68;;;;;;;;;;5093398;28;20252;-74
2021/11/05 09:11:39;;;;;;;23.65;14.07;;;;;;;;;;5093485;28;20653;-73
2021/11/05 09:14:06;;;;;;;20.60;14.82;;;;;;;;;;5093430;28;20202;-74
2021/11/05 09:16:35;;;;;;;22.45;14.30;;;;;;;;;;5094259;28;20199;-74
2021/11/05 09:19:03;;;;;;;20.90;13.63;;;;;;;;;;5093376;28;20204;-74
2021/11/05 09:21:31;;;;;;;20.13;13.07;;;;;;;;;;5093298;28;20203;-73
2021/11/05 09:23:58;;;;;;;20.05;13.10;;;;;;;;;;5093980;28;20208;-73
2021/11/05 09:26:26;;;;;;;25.10;12.30;;;;;;;;;;5093231;28;20197;-74
2021/11/05 09:28:53;;;;;;;27.75;13.35;;;;;;;;;;5093164;28;20207;-74
2021/11/05 09:31:21;;;;;;;20.33;11.95;;;;;;;;;;5093230;28;20649;-74
2021/11/05 09:33:50;;;;;;;21.23;13.05;;;;;;;;;;5093913;28;20679;-77
2021/11/05 09:36:18;;;;;;;21.83;14.25;;;;;;;;;;5093262;28;20229;-80
2021/11/05 09:38:46;;;;;;;25.77;12.77;;;;;;;;;;5093496;28;20279;-75
2021/11/05 09:41:13;;;;;;;21.98;14.30;;;;;;;;;;5093546;28;20655;-74
2021/11/05 09:43:40;;;;;;;22.92;13.80;;;;;;;;;;5093167;28;20661;-74
2021/11/05 09:46:08;;;;;;;22.13;15.27;;;;;;;;;;5093422;28;20202;-74
2021/11/05 09:48:37;;;;;;;18.58;11.32;;;;;;;;;;5093408;28;20551;-74
2021/11/05 09:51:06;;;;;;;18.13;10.60;;;;;;;;;;5093239;28;20645;-74
2021/11/05 09:53:37;;;;;;;18.58;11.48;;;;;;;;;;5092601;28;20731;-74
2021/11/05 09:56:06;;;;;;;18.05;11.82;;;;;;;;;;5097354;28;20182;-74
2021/11/05 09:58:33;;;;;;;18.85;12.60;;;;;;;;;;5096978;28;20232;-74
2021/11/05 10:01:01;;;;;;;19.50;13.15;;;;;;;;;;5097116;28;20200;-73
2021/11/05 10:03:28;;;;;;;15.48;10.32;;;;;;;;;;5097250;28;20623;-74
2021/11/05 10:05:56;;;;;;;19.75;12.40;;;;;;;;;;5096853;28;20672;-74
2021/11/05 10:08:32;;;;;;;18.48;12.05;;;;;;;;;;5097130;28;20554;-74
2021/11/05 10:10:59;;;;;;;22.27;12.73;;;;;;;;;;5097008;28;20213;-73
2021/11/05 10:13:26;;;;;;;17.73;11.52;;;;;;;;;;5097105;28;20200;-74
2021/11/05 10:15:55;;;;;;;16.38;10.50;;;;;;;;;;5096960;28;20200;-74
2021/11/05 10:18:23;;;;;;;15.70;10.40;;;;;;;;;;5096924;28;20201;-74
2021/11/05 10:21:06;;;;;;;17.70;11.70;;;;;;;;;;5097236;28;20203;-74
2021/11/05 10:23:36;;;;;;;17.88;10.18;;;;;;;;;;5096679;28;20752;-75
2021/11/05 10:26:04;;;;;;;14.13;9.95;;;;;;;;;;5096820;28;20201;-73
2021/11/05 10:28:31;;;;;;;20.10;10.70;;;;;;;;;;5096702;28;20207;-74
2021/11/05 10:31:01;;;;;;;14.88;10.55;;;;;;;;;;5096654;28;20571;-74
2021/11/05 10:33:30;;;;;;;18.42;9.15;;;;;;;;;;5096542;28;20196;-75
2021/11/05 10:36:00;;;;;;;16.80;10.50;;;;;;;;;;5096511;28;20224;-75
2021/11/05 10:38:27;;;;;;;12.40;10.07;;;;;;;;;;5096668;28;20469;-74
2021/11/05 10:40:57;;;;;;;14.32;9.50;;;;;;;;;;5096050;28;20449;-72
2021/11/05 10:43:32;;;;;;;13.35;10.52;;;;;;;;;;5096091;28;20197;-71
2021/11/05 10:46:00;;;;;;;15.57;10.40;;;;;;;;;;5096455;28;20196;-71
2021/11/05 10:48:28;;;;;;;16.27;10.47;;;;;;;;;;5096283;28;20280;-70
2021/11/05 10:50:56;;;;;;;13.40;9.57;;;;;;;;;;5095845;28;21008;-72
2021/11/05 10:53:25;;;;;;;17.02;10.15;;;;;;;;;;5096357;28;20506;-72
2021/11/05 10:55:54;;;;;;;13.77;9.90;;;;;;;;;;5095694;28;20208;-71
2021/11/05 10:58:24;;;;;;;16.10;9.13;;;;;;;;;;5096080;28;20568;-71
2021/11/05 11:00:58;;;;;;;13.63;9.00;;;;;;;;;;5095786;28;20435;-71
2021/11/05 11:03:30;;;;;;;14.63;10.67;;;;;;;;;;5096223;28;20510;-71
2021/11/05 11:05:59;;;;;;;13.07;10.32;;;;;;;;;;5095027;28;20435;-71
2021/11/05 11:08:27;;;;;;;20.40;10.50;;;;;;;;;;5096004;28;20198;-72
2021/11/05 11:10:55;;;;;;;15.50;10.27;;;;;;;;;;5095504;28;20475;-72
2021/11/05 11:13:40;;;;;;;14.20;9.70;;;;;;;;;;5095878;28;20863;-72
2021/11/05 11:16:09;;;;;;;16.00;10.40;;;;;;;;;;5095510;28;20665;-71
2021/11/05 11:18:46;;;;;;;16.77;10.40;;;;;;;;;;5096615;28;20204;-71
2021/11/05 11:21:14;;;;;;;16.73;10.83;;;;;;;;;;5095576;28;20469;-72
2021/11/05 11:23:42;;;;;;;14.93;10.00;;;;;;;;;;5095657;28;20442;-71
2021/11/05 11:26:09;;;;;;;11.38;8.55;;;;;;;;;;5096350;28;20443;-72
2021/11/05 11:28:36;;;;;;;15.57;10.95;;;;;;;;;;5095590;28;20205;-71
2021/11/05 11:31:05;;;;;;;13.07;9.73;;;;;;;;;;5095509;28;20645;-72
2021/11/05 11:33:32;;;;;;;12.52;10.48;;;;;;;;;;5095124;28;20239;-71
2021/11/05 11:36:00;;;;;;;12.83;9.70;;;;;;;;;;5095448;28;20195;-71
2021/11/05 11:38:28;;;;;;;15.20;11.10;;;;;;;;;;5095439;28;20439;-72
2021/11/05 11:40:55;;;;;;;14.53;10.00;;;;;;;;;;5095575;28;20487;-71
2021/11/05 11:43:23;;;;;;;13.20;10.40;;;;;;;;;;5095283;28;20485;-71
2021/11/05 11:45:52;;;;;;;14.27;10.07;;;;;;;;;;5095248;28;20514;-71
2021/11/05 11:48:41;;;;;;;12.80;8.30;;;;;;;;;;5094865;28;20439;-71
2021/11/05 11:51:19;;;;;;;13.67;9.50;;;;;;;;;;5095566;28;20632;-72
2021/11/05 11:53:46;;;;;;;14.57;10.15;;;;;;;;;;5094646;28;20554;-72
2021/11/05 11:56:23;;;;;;;21.90;11.57;;;;;;;;;;5094755;28;20193;-72
2021/11/05 11:58:54;;;;;;;13.77;10.05;;;;;;;;;;5095472;28;20419;-72
2021/11/05 12:01:22;;;;;;;13.67;9.40;;;;;;;;;;5094945;28;20193;-72
2021/11/05 12:03:54;;;;;;;17.17;9.87;;;;;;;;;;5094504;28;20436;-72
2021/11/05 12:06:22;;;;;;;12.37;9.57;;;;;;;;;;5095149;28;20436;-71
2021/11/05 12:08:50;;;;;;;13.53;10.10;;;;;;;;;;5094472;28;20450;-72
2021/11/05 12:11:24;;;;;;;14.67;10.40;;;;;;;;;;5094439;28;21043;-71
2021/11/05 12:13:52;;;;;;;11.53;9.40;;;;;;;;;;5094894;28;20456;-72
2021/11/05 12:16:27;;;;;;;15.43;8.90;;;;;;;;;;5094368;28;20526;-72
2021/11/05 12:19:17;;;;;;;12.63;10.40;;;;;;;;;;5094392;28;20904;-72
2021/11/05 12:21:45;;;;;;;16.27;9.80;;;;;;;;;;5094785;28;20443;-72
2021/11/05 12:24:30;;;;;;;10.40;9.30;;;;;;;;;;5094211;28;20944;-72
2021/11/05 12:26:58;;;;;;;11.27;9.20;;;;;;;;;;5094455;28;20783;-72
2021/11/05 12:29:44;;;;;;;13.47;9.60;;;;;;;;;;5095314;28;20461;-72
2021/11/05 12:32:26;;;;;;;15.63;9.20;;;;;;;;;;5094357;28;20514;-71
2021/11/05 12:34:56;;;;;;;10.43;8.97;;;;;;;;;;5094126;28;20471;-72
2021/11/05 12:37:30;;;;;;;18.10;9.67;;;;;;;;;;5094921;28;20489;-72
2021/11/05 12:40:18;;;;;;;11.50;8.55;;;;;;;;;;5094246;28;20449;-72
2021/11/05 12:42:45;;;;;;;12.40;9.20;;;;;;;;;;5093964;28;20206;-71
2021/11/05 12:45:12;;;;;;;13.60;8.70;;;;;;;;;;5094535;28;20793;-72
2021/11/05 12:47:46;;;;;;;11.20;8.90;;;;;;;;;;5094105;28;20436;-71
2021/11/05 12:50:16;;;;;;;10.87;8.97;;;;;;;;;;5094217;28;20427;-74
2021/11/05 12:52:52;;;;;;;12.70;9.03;;;;;;;;;;5093836;28;20565;-72
2021/11/05 12:55:20;;;;;;;12.83;8.30;;;;;;;;;;5093922;28;20837;-72
2021/11/05 12:57:51;;;;;;;9.60;8.57;;;;;;;;;;5094224;28;20436;-72
2021/11/05 13:00:20;;;;;;;14.50;8.50;;;;;;;;;;5093902;28;20204;-71
2021/11/05 13:02:51;;;;;;;10.33;8.47;;;;;;;;;;5093896;28;20450;-71
2021/11/05 13:05:19;;;;;;;14.33;9.00;;;;;;;;;;5094017;28;20424;-72
2021/11/05 13:07:53;;;;;;;10.97;8.17;;;;;;;;;;5093761;28;20848;-72
2021/11/05 13:10:23;;;;;;;12.93;8.43;;;;;;;;;;5093702;28;20454;-72
2021/11/05 13:12:53;;;;;;;14.73;9.20;;;;;;;;;;5093637;28;20438;-72
2021/11/05 13:15:20;;;;;;;12.77;8.70;;;;;;;;;;5093664;28;20438;-72
2021/11/05 13:17:47;;;;;;;9.30;8.37;;;;;;;;;;5093215;28;20533;-72
2021/11/05 13:20:19;;;;;;;12.70;9.27;;;;;;;;;;5093339;28;20436;-77
2021/11/05 13:22:49;;;;;;;15.43;8.93;;;;;;;;;;5094416;28;20852;-73
2021/11/05 13:25:17;;;;;;;13.10;9.30;;;;;;;;;;5093693;28;20530;-73
2021/11/05 13:27:46;;;;;;;15.00;10.30;;;;;;;;;;5093583;28;20439;-74
2021/11/05 13:30:14;;;;;;;11.87;9.97;;;;;;;;;;5096603;28;20800;-74
2021/11/05 13:32:42;;;;;;;12.73;10.27;;;;;;;;;;5097686;28;20518;-73
2021/11/05 13:35:10;;;;;;;12.97;9.20;;;;;;;;;;5097427;28;20442;-73
2021/11/05 13:37:37;;;;;;;13.00;8.67;;;;;;;;;;5097922;28;20518;-72
2021/11/05 13:40:07;;;;;;;9.17;8.23;;;;;;;;;;5090447;28;20810;-73
2021/11/05 13:42:34;;;;;;;13.87;8.40;;;;;;;;;;5075020;28;20442;-72
2021/11/05 13:45:03;;;;;;;10.80;8.43;;;;;;;;;;5076389;28;20471;-73
2021/11/05 13:47:31;;;;;;;10.47;8.90;;;;;;;;;;5077202;28;20833;-73
2021/11/05 13:50:01;;;;;;;10.13;8.70;;;;;;;;;;5076941;28;20446;-72
2021/11/05 13:52:29;;;;;;;10.83;9.00;;;;;;;;;;5076717;28;20579;-73
2021/11/05 13:54:56;;;;;;;9.65;8.23;;;;;;;;;;5076192;28;20444;-73
2021/11/05 13:57:24;;;;;;;12.00;8.50;;;;;;;;;;5076572;28;20678;-73
2021/11/05 13:59:52;;;;;;;24.40;9.83;;;;;;;;;;5077057;28;20539;-73
2021/11/05 14:02:21;;;;;;;13.20;9.50;;;;;;;;;;5076556;28;20878;-73
2021/11/05 14:04:50;;;;;;;12.43;9.37;;;;;;;;;;5076815;28;20447;-74
2021/11/05 14:07:18;;;;;;;10.20;8.67;;;;;;;;;;5076156;28;20522;-73
2021/11/05 14:09:45;;;;;;;12.97;8.70;;;;;;;;;;5076173;28;20956;-72
2021/11/05 14:12:14;;;;;;;13.83;9.87;;;;;;;;;;5074594;28;20491;-73
2021/11/05 14:14:48;;;;;;;10.93;9.80;;;;;;;;;;5076296;28;20436;-73
2021/11/05 14:17:17;;;;;;;10.93;9.07;;;;;;;;;;5076652;28;20507;-73
2021/11/05 14:19:50;;;;;;;20.65;11.25;;;;;;;;;;5076156;28;20444;-73
2021/11/05 14:22:17;;;;;;;12.90;9.30;;;;;;;;;;5076574;28;20198;-73
2021/11/05 14:24:47;;;;;;;12.30;9.20;;;;;;;;;;5076162;28;20989;-73